Time;durP1;ratioP1;P1;durP2;ratioP2;P2;SDS_P1;SDS_P2;PMS_P1;PMS_P2;Temp;Humidity;BMP_temperature;BMP_pressure;BME280_temperature;BME280_humidity;BME280_pressure;Samples;Min_cycle;Max_cycle;Signal;HPM_P1;HPM_P2
2021/04/19 00:02:14;;;;;;;5.10;3.77;;;;;;;;;;5073883;28;20195;-59
2021/04/19 00:04:40;;;;;;;3.87;3.40;;;;;;;;;;5074348;28;20171;-59
2021/04/19 00:07:06;;;;;;;4.43;3.60;;;;;;;;;;5088931;28;20175;-60
2021/04/19 00:09:33;;;;;;;3.97;3.33;;;;;;;;;;5093384;28;20167;-59
2021/04/19 00:11:59;;;;;;;6.07;4.13;;;;;;;;;;5089568;28;20252;-59
2021/04/19 00:14:25;;;;;;;3.43;3.13;;;;;;;;;;5092495;28;20693;-60
2021/04/19 00:16:51;;;;;;;4.03;3.63;;;;;;;;;;5073969;28;20258;-60
2021/04/19 00:19:17;;;;;;;3.93;3.17;;;;;;;;;;5088764;28;20180;-60
2021/04/19 00:21:43;;;;;;;4.67;3.67;;;;;;;;;;5089675;28;20168;-60
2021/04/19 00:24:09;;;;;;;4.23;3.83;;;;;;;;;;5088134;28;20262;-60
2021/04/19 00:26:35;;;;;;;5.27;3.67;;;;;;;;;;5088207;28;20182;-60
2021/04/19 00:29:01;;;;;;;4.10;3.23;;;;;;;;;;5090950;28;20170;-59
2021/04/19 00:31:27;;;;;;;3.67;3.07;;;;;;;;;;5092921;28;20212;-59
2021/04/19 00:33:53;;;;;;;3.63;3.33;;;;;;;;;;5091868;28;20631;-60
2021/04/19 00:36:19;;;;;;;4.13;3.73;;;;;;;;;;5081902;28;20172;-59
2021/04/19 00:38:45;;;;;;;4.97;3.47;;;;;;;;;;5074874;28;20203;-60
2021/04/19 00:41:12;;;;;;;4.77;3.80;;;;;;;;;;5090962;28;20183;-60
2021/04/19 00:43:38;;;;;;;4.10;3.70;;;;;;;;;;5063681;28;20436;-60
2021/04/19 00:46:05;;;;;;;4.93;3.20;;;;;;;;;;5091728;28;20622;-59
2021/04/19 00:48:35;;;;;;;4.90;2.87;;;;;;;;;;5058381;28;20176;-60
2021/04/19 00:51:01;;;;;;;5.37;3.97;;;;;;;;;;5088080;28;20588;-60
2021/04/19 00:53:28;;;;;;;4.80;3.97;;;;;;;;;;5074587;28;20172;-60
2021/04/19 00:55:55;;;;;;;4.97;3.63;;;;;;;;;;5085660;28;20199;-60
2021/04/19 00:58:23;;;;;;;4.20;3.73;;;;;;;;;;5091267;28;20191;-60
2021/04/19 01:00:49;;;;;;;5.47;4.43;;;;;;;;;;5070008;28;20211;-60
2021/04/19 01:03:15;;;;;;;3.67;3.07;;;;;;;;;;5092035;28;20211;-60
2021/04/19 01:05:42;;;;;;;3.57;3.07;;;;;;;;;;5085924;28;20688;-59
2021/04/19 01:08:08;;;;;;;5.47;3.80;;;;;;;;;;5088118;28;20778;-59
2021/04/19 01:10:35;;;;;;;6.13;3.80;;;;;;;;;;5089347;28;20180;-60
2021/04/19 01:13:02;;;;;;;5.30;4.17;;;;;;;;;;5058110;28;20603;-59
2021/04/19 01:15:28;;;;;;;4.83;3.97;;;;;;;;;;5089077;28;20661;-59
2021/04/19 01:17:54;;;;;;;3.87;3.57;;;;;;;;;;5084153;28;20657;-59
2021/04/19 01:20:22;;;;;;;4.37;3.97;;;;;;;;;;5089255;28;20186;-60
2021/04/19 01:22:48;;;;;;;3.77;3.30;;;;;;;;;;5084375;28;20200;-59
2021/04/19 01:25:16;;;;;;;4.30;3.80;;;;;;;;;;5089643;28;20183;-59
2021/04/19 01:27:42;;;;;;;3.83;3.43;;;;;;;;;;5087760;28;20239;-59
2021/04/19 01:30:09;;;;;;;4.10;3.70;;;;;;;;;;5091790;28;20672;-59
2021/04/19 01:32:35;;;;;;;5.67;3.43;;;;;;;;;;5043995;28;20315;-59
2021/04/19 01:35:02;;;;;;;4.30;3.90;;;;;;;;;;5045953;28;20177;-59
2021/04/19 01:37:28;;;;;;;3.87;3.30;;;;;;;;;;5055604;28;20180;-60
2021/04/19 01:39:54;;;;;;;3.93;3.30;;;;;;;;;;5066381;28;20232;-61
2021/04/19 01:42:20;;;;;;;4.50;4.00;;;;;;;;;;5062814;28;20196;-59
2021/04/19 01:44:46;;;;;;;4.27;3.73;;;;;;;;;;5067355;28;20185;-62
2021/04/19 01:47:12;;;;;;;4.00;3.47;;;;;;;;;;5051788;28;20165;-60
2021/04/19 01:49:38;;;;;;;4.60;3.23;;;;;;;;;;5058501;28;20211;-59
2021/04/19 01:52:04;;;;;;;6.27;3.87;;;;;;;;;;5058927;28;20260;-59
2021/04/19 01:54:30;;;;;;;4.47;4.00;;;;;;;;;;5068872;28;20196;-59
2021/04/19 01:56:56;;;;;;;5.50;3.60;;;;;;;;;;5060038;28;20538;-60
2021/04/19 01:59:23;;;;;;;4.10;3.57;;;;;;;;;;5051458;28;20243;-59
2021/04/19 02:02:10;;;;;;;5.87;4.00;;;;;;;;;;5059506;28;20180;-59
2021/04/19 02:04:47;;;;;;;4.07;3.13;;;;;;;;;;5055901;28;20191;-61
2021/04/19 02:07:17;;;;;;;3.97;3.57;;;;;;;;;;5057429;28;20851;-59
2021/04/19 02:09:49;;;;;;;4.33;3.93;;;;;;;;;;5067442;28;20176;-59
2021/04/19 02:12:21;;;;;;;6.23;3.93;;;;;;;;;;5056627;28;20165;-59
2021/04/19 02:14:51;;;;;;;5.00;3.93;;;;;;;;;;5059398;28;20638;-61
2021/04/19 02:17:23;;;;;;;5.57;3.97;;;;;;;;;;5059832;28;20235;-60
2021/04/19 02:19:49;;;;;;;4.23;3.50;;;;;;;;;;5066376;28;20245;-59
2021/04/19 02:22:15;;;;;;;4.47;3.87;;;;;;;;;;5055482;28;20227;-59
2021/04/19 02:24:46;;;;;;;3.83;3.43;;;;;;;;;;5051708;28;20233;-59
2021/04/19 02:27:14;;;;;;;5.27;4.17;;;;;;;;;;5055433;28;20655;-59
2021/04/19 02:29:42;;;;;;;6.47;3.93;;;;;;;;;;5047350;28;20179;-59
2021/04/19 02:32:11;;;;;;;4.97;3.60;;;;;;;;;;5080433;28;20215;-59
2021/04/19 02:34:37;;;;;;;5.37;3.80;;;;;;;;;;5090196;28;20183;-60
2021/04/19 02:37:03;;;;;;;4.87;3.50;;;;;;;;;;5085883;28;20212;-59
2021/04/19 02:39:31;;;;;;;4.20;3.67;;;;;;;;;;5087467;28;20191;-59
2021/04/19 02:41:58;;;;;;;4.20;3.80;;;;;;;;;;5087158;28;20176;-59
2021/04/19 02:44:24;;;;;;;5.10;3.27;;;;;;;;;;5080474;28;20234;-59
2021/04/19 02:46:53;;;;;;;5.27;4.10;;;;;;;;;;5076369;28;20186;-59
2021/04/19 02:49:29;;;;;;;6.23;4.33;;;;;;;;;;5080511;28;20187;-59
2021/04/19 02:51:55;;;;;;;5.10;3.63;;;;;;;;;;5077426;28;20172;-59
2021/04/19 02:54:22;;;;;;;4.47;4.03;;;;;;;;;;5087296;28;20182;-60
2021/04/19 02:56:50;;;;;;;6.50;4.00;;;;;;;;;;5093309;28;20174;-60
2021/04/19 02:59:18;;;;;;;4.67;4.03;;;;;;;;;;5078229;28;20302;-63
2021/04/19 03:01:46;;;;;;;5.77;4.30;;;;;;;;;;5094829;28;20172;-59
2021/04/19 03:04:16;;;;;;;4.03;3.63;;;;;;;;;;5093485;28;20248;-60
2021/04/19 03:06:44;;;;;;;4.73;3.93;;;;;;;;;;5091729;28;20180;-61
2021/04/19 03:09:12;;;;;;;5.03;3.30;;;;;;;;;;5096173;28;20167;-60
2021/04/19 03:11:50;;;;;;;4.93;3.80;;;;;;;;;;5074775;28;20180;-61
2021/04/19 03:14:17;;;;;;;4.13;3.70;;;;;;;;;;5079521;28;20241;-60
2021/04/19 03:16:51;;;;;;;4.80;4.30;;;;;;;;;;5097041;28;20187;-59
2021/04/19 03:19:19;;;;;;;5.10;4.20;;;;;;;;;;5069817;28;20192;-60
2021/04/19 03:21:48;;;;;;;5.03;4.43;;;;;;;;;;5089292;28;20490;-59
2021/04/19 03:24:15;;;;;;;4.10;3.60;;;;;;;;;;5095064;28;20313;-59
2021/04/19 03:26:42;;;;;;;4.83;4.07;;;;;;;;;;5071792;28;20233;-60
2021/04/19 03:29:09;;;;;;;5.20;3.80;;;;;;;;;;5071597;28;20573;-60
2021/04/19 03:31:38;;;;;;;6.10;4.33;;;;;;;;;;5095010;28;20700;-60
2021/04/19 03:34:06;;;;;;;4.00;3.60;;;;;;;;;;5078774;28;20645;-60
2021/04/19 03:36:33;;;;;;;5.50;4.60;;;;;;;;;;5070089;28;20191;-60
2021/04/19 03:39:01;;;;;;;5.90;4.33;;;;;;;;;;5088685;28;20999;-60
2021/04/19 03:41:28;;;;;;;4.47;3.63;;;;;;;;;;5087278;28;20258;-60
2021/04/19 03:43:59;;;;;;;5.40;4.03;;;;;;;;;;5083614;28;20204;-59
2021/04/19 03:46:26;;;;;;;4.63;3.73;;;;;;;;;;5070578;28;20524;-60
2021/04/19 03:48:58;;;;;;;4.57;3.77;;;;;;;;;;5094383;28;20700;-62
2021/04/19 03:51:25;;;;;;;6.17;4.13;;;;;;;;;;5087178;28;20552;-60
2021/04/19 03:53:53;;;;;;;4.77;3.97;;;;;;;;;;5095682;28;20168;-59
2021/04/19 03:56:20;;;;;;;5.40;4.27;;;;;;;;;;5087645;28;20263;-60
2021/04/19 03:58:47;;;;;;;5.23;3.80;;;;;;;;;;5078952;28;20176;-60
2021/04/19 04:01:14;;;;;;;4.95;4.30;;;;;;;;;;5087219;28;20499;-61
2021/04/19 04:03:40;;;;;;;6.73;4.33;;;;;;;;;;5083439;28;20199;-61
2021/04/19 04:06:08;;;;;;;5.20;4.10;;;;;;;;;;5091180;28;20626;-60
2021/04/19 04:08:35;;;;;;;4.50;3.63;;;;;;;;;;5082371;28;20237;-60
2021/04/19 04:11:01;;;;;;;4.40;3.63;;;;;;;;;;5082443;28;20172;-60
2021/04/19 04:13:29;;;;;;;7.90;3.87;;;;;;;;;;5079400;28;20180;-60
2021/04/19 04:15:59;;;;;;;5.50;3.90;;;;;;;;;;5060459;28;20192;-60
2021/04/19 04:18:26;;;;;;;4.53;3.90;;;;;;;;;;5073866;28;20260;-60
2021/04/19 04:20:53;;;;;;;8.43;4.30;;;;;;;;;;5084610;28;20642;-60
2021/04/19 04:23:19;;;;;;;4.87;3.83;;;;;;;;;;5089508;28;20207;-60
2021/04/19 04:25:45;;;;;;;4.13;3.60;;;;;;;;;;5087258;28;20520;-62
2021/04/19 04:28:12;;;;;;;4.13;3.73;;;;;;;;;;5061043;28;20266;-60
2021/04/19 04:30:38;;;;;;;4.73;4.03;;;;;;;;;;5081983;28;20180;-61
2021/04/19 04:33:04;;;;;;;4.80;3.83;;;;;;;;;;5074016;28;20682;-60
2021/04/19 04:35:30;;;;;;;5.53;4.17;;;;;;;;;;5087145;28;20187;-60
2021/04/19 04:37:57;;;;;;;4.33;3.93;;;;;;;;;;5083815;28;20183;-61
2021/04/19 04:40:25;;;;;;;4.17;3.70;;;;;;;;;;5081210;28;20528;-61
2021/04/19 04:42:52;;;;;;;4.23;3.33;;;;;;;;;;5063874;28;20731;-60
2021/04/19 04:45:18;;;;;;;4.97;3.90;;;;;;;;;;5086163;28;20172;-60
2021/04/19 04:47:57;;;;;;;5.73;4.23;;;;;;;;;;5085099;28;20199;-60
2021/04/19 04:50:25;;;;;;;6.07;4.27;;;;;;;;;;5063066;28;20200;-61
2021/04/19 04:53:09;;;;;;;4.33;3.93;;;;;;;;;;5082411;28;20175;-61
2021/04/19 04:55:36;;;;;;;5.13;4.00;;;;;;;;;;5069153;28;20180;-61
2021/04/19 04:58:03;;;;;;;4.47;4.00;;;;;;;;;;5057908;28;20180;-61
2021/04/19 05:00:30;;;;;;;6.67;4.60;;;;;;;;;;5059467;28;20617;-61
2021/04/19 05:02:56;;;;;;;4.53;3.77;;;;;;;;;;5061496;28;20215;-61
2021/04/19 05:05:23;;;;;;;5.00;4.23;;;;;;;;;;5080320;28;20548;-61
2021/04/19 05:07:49;;;;;;;4.63;3.77;;;;;;;;;;5070374;28;20272;-63
2021/04/19 05:10:15;;;;;;;4.37;3.73;;;;;;;;;;5059424;28;20183;-61
2021/04/19 05:12:42;;;;;;;5.00;4.20;;;;;;;;;;5086687;28;20186;-61
2021/04/19 05:15:12;;;;;;;4.73;4.33;;;;;;;;;;5090744;28;20248;-61
2021/04/19 05:17:38;;;;;;;4.43;3.63;;;;;;;;;;5073892;28;20180;-64
2021/04/19 05:20:08;;;;;;;4.67;3.97;;;;;;;;;;5062383;28;20586;-62
2021/04/19 05:22:34;;;;;;;6.17;4.87;;;;;;;;;;5087825;28;20236;-62
2021/04/19 05:25:00;;;;;;;4.77;4.13;;;;;;;;;;5075471;28;20175;-61
2021/04/19 05:27:27;;;;;;;4.80;4.13;;;;;;;;;;5090023;28;20639;-62
2021/04/19 05:29:53;;;;;;;4.90;4.40;;;;;;;;;;5066307;28;20988;-64
2021/04/19 05:32:22;;;;;;;6.67;4.17;;;;;;;;;;5086745;28;20314;-62
2021/04/19 05:34:48;;;;;;;4.70;4.17;;;;;;;;;;5073481;28;20183;-62
2021/04/19 05:37:17;;;;;;;6.13;3.87;;;;;;;;;;5088857;28;20172;-61
2021/04/19 05:39:43;;;;;;;5.07;4.47;;;;;;;;;;5072031;28;20518;-61
2021/04/19 05:42:10;;;;;;;5.20;3.70;;;;;;;;;;5088933;28;20180;-62
2021/04/19 05:44:36;;;;;;;4.70;4.20;;;;;;;;;;5064539;28;20176;-61
2021/04/19 05:47:02;;;;;;;5.63;4.20;;;;;;;;;;5066681;28;20259;-61
2021/04/19 05:49:28;;;;;;;5.50;4.00;;;;;;;;;;5075282;28;20203;-61
2021/04/19 05:51:59;;;;;;;5.87;4.50;;;;;;;;;;5074522;28;20184;-62
2021/04/19 05:54:26;;;;;;;6.67;4.00;;;;;;;;;;5084413;28;20179;-61
2021/04/19 05:56:58;;;;;;;6.00;4.10;;;;;;;;;;5088344;28;20538;-61
2021/04/19 05:59:27;;;;;;;4.83;4.30;;;;;;;;;;5082528;28;20191;-63
2021/04/19 06:01:54;;;;;;;4.77;4.07;;;;;;;;;;5085896;28;20263;-61
2021/04/19 06:04:26;;;;;;;6.27;4.53;;;;;;;;;;5083961;28;20192;-62
2021/04/19 06:07:00;;;;;;;4.80;4.40;;;;;;;;;;5086164;28;20173;-61
2021/04/19 06:09:54;;;;;;;5.37;4.43;;;;;;;;;;5074910;28;20198;-62
2021/04/19 06:12:22;;;;;;;5.43;4.07;;;;;;;;;;5039224;28;20199;-61
2021/04/19 06:14:50;;;;;;;7.40;4.83;;;;;;;;;;5059494;28;20658;-61
2021/04/19 06:17:17;;;;;;;5.37;4.57;;;;;;;;;;5082047;28;20217;-61
2021/04/19 06:19:45;;;;;;;5.80;4.80;;;;;;;;;;5081298;28;20238;-61
2021/04/19 06:22:29;;;;;;;7.80;4.70;;;;;;;;;;5055137;28;20182;-62
2021/04/19 06:24:55;;;;;;;5.90;5.30;;;;;;;;;;5083780;28;20172;-62
2021/04/19 06:27:23;;;;;;;5.03;4.53;;;;;;;;;;5081839;28;20181;-62
2021/04/19 06:29:49;;;;;;;6.23;5.03;;;;;;;;;;5075766;28;20677;-63
2021/04/19 06:32:16;;;;;;;5.70;5.10;;;;;;;;;;5079446;28;20266;-61
2021/04/19 06:34:42;;;;;;;5.67;4.90;;;;;;;;;;5059534;28;20179;-61
2021/04/19 06:37:09;;;;;;;6.00;4.77;;;;;;;;;;5083488;28;20265;-61
2021/04/19 06:39:35;;;;;;;7.97;5.30;;;;;;;;;;5072633;28;20176;-61
2021/04/19 06:42:04;;;;;;;6.03;5.20;;;;;;;;;;5064051;28;20194;-61
2021/04/19 06:44:31;;;;;;;5.33;4.83;;;;;;;;;;5084135;28;20179;-62
2021/04/19 06:46:58;;;;;;;6.13;5.53;;;;;;;;;;5082799;28;20559;-61
2021/04/19 06:49:24;;;;;;;7.37;5.20;;;;;;;;;;5069570;28;20204;-61
2021/04/19 06:51:52;;;;;;;5.67;4.87;;;;;;;;;;5052528;28;20180;-61
2021/04/19 06:54:18;;;;;;;5.53;4.50;;;;;;;;;;5079342;28;20173;-61
2021/04/19 06:56:44;;;;;;;5.60;5.07;;;;;;;;;;5075011;28;20168;-61
2021/04/19 06:59:11;;;;;;;6.87;5.23;;;;;;;;;;5057383;28;20196;-62
2021/04/19 07:01:38;;;;;;;6.53;4.87;;;;;;;;;;5070291;28;20214;-62
2021/04/19 07:04:11;;;;;;;6.10;5.57;;;;;;;;;;5070262;28;21832;-63
2021/04/19 07:06:38;;;;;;;6.23;5.50;;;;;;;;;;5070168;28;20656;-61
2021/04/19 07:09:10;;;;;;;6.80;6.10;;;;;;;;;;5069884;28;20263;-61
2021/04/19 07:11:38;;;;;;;6.17;5.57;;;;;;;;;;5083281;28;20214;-61
2021/04/19 07:14:05;;;;;;;6.67;5.20;;;;;;;;;;5084955;28;20179;-61
2021/04/19 07:16:33;;;;;;;6.13;5.27;;;;;;;;;;5069740;28;20302;-62
2021/04/19 07:18:59;;;;;;;5.73;5.13;;;;;;;;;;5090349;28;20527;-62
2021/04/19 07:21:26;;;;;;;6.83;5.83;;;;;;;;;;5089598;28;20198;-64
2021/04/19 07:23:52;;;;;;;5.83;4.90;;;;;;;;;;5075548;28;20260;-63
2021/04/19 07:26:18;;;;;;;5.80;5.20;;;;;;;;;;5086559;28;20181;-62
2021/04/19 07:28:44;;;;;;;5.90;5.30;;;;;;;;;;5087325;28;20172;-61
2021/04/19 07:31:11;;;;;;;6.60;5.80;;;;;;;;;;5090089;28;20641;-63
2021/04/19 07:33:37;;;;;;;6.27;4.90;;;;;;;;;;5071387;28;20627;-62
2021/04/19 07:36:19;;;;;;;7.30;6.40;;;;;;;;;;5086959;28;20191;-63
2021/04/19 07:38:45;;;;;;;8.93;7.73;;;;;;;;;;5082895;28;20184;-60
2021/04/19 07:41:11;;;;;;;8.67;7.77;;;;;;;;;;5090054;28;20184;-61
2021/04/19 07:43:38;;;;;;;10.93;9.83;;;;;;;;;;5082829;28;20462;-60
2021/04/19 07:46:08;;;;;;;9.40;8.40;;;;;;;;;;5059934;28;20177;-60
2021/04/19 07:48:35;;;;;;;10.37;8.60;;;;;;;;;;5080699;28;20169;-59
2021/04/19 07:51:21;;;;;;;9.80;8.50;;;;;;;;;;5068651;28;20200;-60
2021/04/19 07:54:07;;;;;;;23.17;9.17;;;;;;;;;;5069203;28;20184;-60
2021/04/19 07:56:33;;;;;;;12.03;9.13;;;;;;;;;;5048617;28;20242;-61
2021/04/19 07:59:19;;;;;;;11.17;8.20;;;;;;;;;;5055651;28;20188;-60
2021/04/19 08:02:04;;;;;;;9.87;7.53;;;;;;;;;;5087420;28;20213;-62
2021/04/19 08:04:30;;;;;;;15.03;8.17;;;;;;;;;;5073553;28;20211;-61
2021/04/19 08:06:57;;;;;;;12.07;7.67;;;;;;;;;;5088993;28;20636;-61
2021/04/19 08:09:24;;;;;;;9.87;7.40;;;;;;;;;;5089400;28;20163;-61
2021/04/19 08:11:52;;;;;;;10.47;7.57;;;;;;;;;;5084585;28;20187;-60
2021/04/19 08:14:18;;;;;;;7.77;6.90;;;;;;;;;;5072014;28;20176;-61
2021/04/19 08:16:44;;;;;;;8.43;6.77;;;;;;;;;;5070210;28;20669;-61
2021/04/19 08:19:10;;;;;;;9.77;6.80;;;;;;;;;;5078825;28;20184;-63
2021/04/19 08:21:36;;;;;;;11.83;7.23;;;;;;;;;;5090011;28;20527;-61
2021/04/19 08:24:15;;;;;;;8.50;6.27;;;;;;;;;;5092303;28;20192;-61
2021/04/19 08:26:54;;;;;;;7.20;6.47;;;;;;;;;;5090796;28;20179;-63
2021/04/19 08:29:39;;;;;;;7.43;6.57;;;;;;;;;;5092579;28;20278;-64
2021/04/19 08:32:06;;;;;;;7.60;6.63;;;;;;;;;;5091439;28;20789;-62
2021/04/19 08:34:35;;;;;;;6.70;6.00;;;;;;;;;;5082782;28;20192;-61
2021/04/19 08:37:01;;;;;;;8.63;6.27;;;;;;;;;;5081571;28;20180;-62
2021/04/19 08:39:28;;;;;;;8.13;6.17;;;;;;;;;;5090095;28;20612;-61
2021/04/19 08:41:55;;;;;;;8.03;6.40;;;;;;;;;;5068310;28;20183;-61
2021/04/19 08:44:21;;;;;;;7.30;6.50;;;;;;;;;;5074577;28;20239;-62
2021/04/19 08:46:47;;;;;;;7.27;6.20;;;;;;;;;;5071901;28;20269;-61
2021/04/19 08:49:14;;;;;;;7.57;6.53;;;;;;;;;;5093296;28;20195;-61
2021/04/19 08:51:40;;;;;;;7.37;6.67;;;;;;;;;;5092660;28;20263;-61
2021/04/19 08:54:06;;;;;;;7.70;5.87;;;;;;;;;;5070772;28;20195;-62
2021/04/19 08:56:33;;;;;;;8.00;5.90;;;;;;;;;;5087386;28;20267;-61
2021/04/19 08:59:00;;;;;;;9.10;7.33;;;;;;;;;;5072653;28;20902;-61
2021/04/19 09:01:28;;;;;;;7.70;6.30;;;;;;;;;;5092256;28;20237;-61
2021/04/19 09:04:04;;;;;;;6.90;6.20;;;;;;;;;;5091633;28;20196;-61
2021/04/19 09:06:40;;;;;;;7.07;5.80;;;;;;;;;;5089814;28;20172;-62
2021/04/19 09:09:06;;;;;;;6.50;5.53;;;;;;;;;;5080491;28;20295;-62
2021/04/19 09:11:32;;;;;;;7.20;6.50;;;;;;;;;;5062804;28;20176;-62
2021/04/19 09:14:05;;;;;;;6.93;6.23;;;;;;;;;;5073567;28;20270;-62
2021/04/19 09:16:36;;;;;;;9.00;6.80;;;;;;;;;;5090275;28;20577;-62
2021/04/19 09:19:03;;;;;;;7.83;5.83;;;;;;;;;;5063768;28;20188;-61
2021/04/19 09:21:33;;;;;;;8.10;6.80;;;;;;;;;;5070732;28;20175;-61
2021/04/19 09:23:59;;;;;;;7.33;6.33;;;;;;;;;;5059712;28;20562;-61
2021/04/19 09:26:44;;;;;;;7.03;6.27;;;;;;;;;;5068003;28;20179;-60
2021/04/19 09:29:10;;;;;;;8.37;6.47;;;;;;;;;;5088871;28;20255;-61
2021/04/19 09:31:55;;;;;;;6.87;6.10;;;;;;;;;;5055666;28;20224;-61
2021/04/19 09:34:35;;;;;;;8.33;6.37;;;;;;;;;;5067573;28;20736;-63
2021/04/19 09:37:02;;;;;;;6.90;6.07;;;;;;;;;;5064505;28;20963;-61
2021/04/19 09:39:47;;;;;;;8.47;7.10;;;;;;;;;;5050913;28;20188;-61
2021/04/19 09:42:13;;;;;;;6.90;6.20;;;;;;;;;;5066309;28;20180;-61
2021/04/19 09:44:49;;;;;;;8.70;7.13;;;;;;;;;;5070526;28;20793;-60
2021/04/19 09:47:35;;;;;;;7.53;6.73;;;;;;;;;;5070496;28;20168;-60
2021/04/19 09:50:03;;;;;;;7.13;6.43;;;;;;;;;;5068957;28;20212;-63
2021/04/19 09:52:29;;;;;;;8.50;7.50;;;;;;;;;;5070429;28;20184;-61
2021/04/19 09:55:00;;;;;;;10.10;7.03;;;;;;;;;;5068940;28;20230;-62
2021/04/19 09:57:26;;;;;;;7.87;7.07;;;;;;;;;;5070445;28;20210;-61
2021/04/19 09:59:52;;;;;;;8.00;7.20;;;;;;;;;;5070607;28;20203;-61
2021/04/19 10:02:18;;;;;;;7.70;7.00;;;;;;;;;;5070886;28;20183;-61
2021/04/19 10:04:46;;;;;;;9.10;8.20;;;;;;;;;;5070570;28;20192;-61
2021/04/19 10:07:12;;;;;;;10.60;9.57;;;;;;;;;;5051870;28;20180;-62
2021/04/19 10:09:40;;;;;;;14.53;10.13;;;;;;;;;;5062115;28;20255;-61
2021/04/19 10:12:07;;;;;;;9.60;8.53;;;;;;;;;;5068964;28;20580;-61
2021/04/19 10:14:34;;;;;;;9.70;8.70;;;;;;;;;;5066911;28;20628;-61
2021/04/19 10:17:00;;;;;;;10.40;9.30;;;;;;;;;;5065017;28;20184;-61
2021/04/19 10:19:28;;;;;;;10.60;8.87;;;;;;;;;;5066569;28;20180;-62
2021/04/19 10:22:01;;;;;;;10.80;9.00;;;;;;;;;;5068484;28;20188;-60
2021/04/19 10:24:28;;;;;;;10.67;9.60;;;;;;;;;;5069055;28;20235;-61
2021/04/19 10:26:54;;;;;;;9.10;8.20;;;;;;;;;;5064443;28;20558;-60
2021/04/19 10:29:20;;;;;;;11.30;10.00;;;;;;;;;;5046443;28;20176;-60
2021/04/19 10:31:57;;;;;;;12.50;10.30;;;;;;;;;;5080607;28;20219;-60
2021/04/19 10:34:24;;;;;;;10.53;9.53;;;;;;;;;;5066726;28;20262;-61
2021/04/19 10:36:52;;;;;;;12.13;10.83;;;;;;;;;;5082443;28;20195;-60
2021/04/19 10:39:22;;;;;;;11.00;9.90;;;;;;;;;;5094534;28;20545;-61
2021/04/19 10:41:49;;;;;;;11.30;10.20;;;;;;;;;;5066974;28;20654;-61
2021/04/19 10:44:16;;;;;;;14.53;10.43;;;;;;;;;;5087089;28;20249;-61
2021/04/19 10:46:43;;;;;;;13.30;12.00;;;;;;;;;;5082589;28;20183;-63
2021/04/19 10:49:20;;;;;;;12.37;10.73;;;;;;;;;;5069303;28;20257;-61
2021/04/19 10:51:50;;;;;;;12.40;10.30;;;;;;;;;;5064960;28;20206;-60
2021/04/19 10:54:16;;;;;;;12.47;10.60;;;;;;;;;;5090202;28;20180;-60
2021/04/19 10:56:43;;;;;;;11.90;10.70;;;;;;;;;;5070508;28;20279;-63
2021/04/19 10:59:10;;;;;;;11.47;10.37;;;;;;;;;;5080420;28;20229;-61
2021/04/19 11:01:42;;;;;;;12.43;11.23;;;;;;;;;;5086903;28;20183;-60
2021/04/19 11:04:08;;;;;;;11.57;10.10;;;;;;;;;;5063272;28;20219;-60
2021/04/19 11:06:36;;;;;;;12.50;11.17;;;;;;;;;;5086117;28;20203;-60
2021/04/19 11:09:06;;;;;;;14.63;13.23;;;;;;;;;;5085485;28;20413;-60
2021/04/19 11:11:35;;;;;;;13.37;12.10;;;;;;;;;;5088164;28;20634;-60
2021/04/19 11:14:08;;;;;;;12.50;11.20;;;;;;;;;;5106342;28;20656;-62
2021/04/19 11:16:34;;;;;;;13.67;12.17;;;;;;;;;;5086737;28;20207;-61
2021/04/19 11:19:01;;;;;;;12.93;11.63;;;;;;;;;;5091200;28;20176;-60
2021/04/19 11:21:28;;;;;;;11.97;10.77;;;;;;;;;;5072360;28;20192;-61
2021/04/19 11:24:11;;;;;;;13.53;11.80;;;;;;;;;;5077335;28;20218;-61
2021/04/19 11:26:38;;;;;;;12.50;11.20;;;;;;;;;;5092367;28;20188;-63
2021/04/19 11:29:04;;;;;;;12.87;10.23;;;;;;;;;;5083865;28;20184;-61
2021/04/19 11:31:42;;;;;;;12.50;11.20;;;;;;;;;;5089148;28;20233;-61
2021/04/19 11:34:15;;;;;;;12.03;10.93;;;;;;;;;;5075807;28;20199;-61
2021/04/19 11:36:42;;;;;;;11.43;10.33;;;;;;;;;;5091942;28;20266;-60
2021/04/19 11:39:13;;;;;;;12.33;11.03;;;;;;;;;;5064398;28;20194;-60
2021/04/19 11:41:39;;;;;;;12.60;10.87;;;;;;;;;;5091998;28;20201;-61
2021/04/19 11:44:05;;;;;;;12.77;10.97;;;;;;;;;;5064653;28;20196;-61
2021/04/19 11:46:32;;;;;;;12.30;11.10;;;;;;;;;;5090024;28;20527;-60
2021/04/19 11:48:58;;;;;;;11.97;10.80;;;;;;;;;;5093471;28;20176;-63
2021/04/19 11:51:24;;;;;;;12.67;11.50;;;;;;;;;;5089412;28;20262;-60
2021/04/19 11:53:50;;;;;;;10.87;9.77;;;;;;;;;;5093677;28;20168;-60
2021/04/19 11:56:17;;;;;;;11.97;10.77;;;;;;;;;;5074541;28;20211;-60
2021/04/19 11:58:48;;;;;;;11.97;10.87;;;;;;;;;;5086589;28;20203;-61
2021/04/19 12:01:16;;;;;;;12.23;10.93;;;;;;;;;;5091939;28;20233;-60
2021/04/19 12:03:42;;;;;;;12.57;11.33;;;;;;;;;;5070860;28;20298;-59
2021/04/19 12:06:08;;;;;;;11.87;10.47;;;;;;;;;;5091244;28;20203;-61
2021/04/19 12:08:43;;;;;;;12.57;11.30;;;;;;;;;;5088316;28;20180;-61
2021/04/19 12:11:10;;;;;;;12.27;11.07;;;;;;;;;;5056964;28;20657;-62
2021/04/19 12:13:36;;;;;;;13.47;11.47;;;;;;;;;;5082455;28;20182;-61
2021/04/19 12:16:03;;;;;;;12.30;11.20;;;;;;;;;;5097246;28;20183;-60
2021/04/19 12:18:32;;;;;;;12.07;10.90;;;;;;;;;;5091671;28;20180;-61
2021/04/19 12:20:58;;;;;;;11.73;10.53;;;;;;;;;;5088298;28;20283;-61
2021/04/19 12:23:24;;;;;;;12.67;11.47;;;;;;;;;;5092601;28;20772;-61
2021/04/19 12:25:52;;;;;;;11.33;10.23;;;;;;;;;;5085747;28;20203;-60
2021/04/19 12:28:19;;;;;;;11.50;10.40;;;;;;;;;;5087874;28;20184;-63
2021/04/19 12:30:45;;;;;;;13.00;10.43;;;;;;;;;;5090810;28;20535;-61
2021/04/19 12:33:11;;;;;;;11.53;9.93;;;;;;;;;;5086159;28;20325;-60
2021/04/19 12:35:37;;;;;;;12.87;11.60;;;;;;;;;;5084656;28;20199;-61
2021/04/19 12:38:03;;;;;;;11.20;10.10;;;;;;;;;;5061746;28;20212;-62
2021/04/19 12:40:29;;;;;;;11.00;9.90;;;;;;;;;;5078837;28;20186;-61
2021/04/19 12:42:56;;;;;;;14.70;9.93;;;;;;;;;;5090206;28;20747;-62
2021/04/19 12:45:24;;;;;;;11.40;9.97;;;;;;;;;;5090190;28;20172;-61
2021/04/19 12:47:52;;;;;;;12.13;10.93;;;;;;;;;;5072662;28;20179;-61
2021/04/19 12:50:18;;;;;;;11.00;9.67;;;;;;;;;;5084894;28;20211;-61
2021/04/19 12:52:44;;;;;;;11.70;10.60;;;;;;;;;;5091704;28;20188;-62
2021/04/19 12:55:10;;;;;;;11.33;10.23;;;;;;;;;;5083570;28;20234;-61
2021/04/19 12:57:36;;;;;;;11.00;9.90;;;;;;;;;;5079017;28;20184;-61
2021/04/19 13:00:03;;;;;;;10.90;9.90;;;;;;;;;;5073483;28;20267;-61
2021/04/19 13:02:29;;;;;;;11.43;10.23;;;;;;;;;;5063083;28;20530;-61
2021/04/19 13:04:55;;;;;;;11.27;10.17;;;;;;;;;;5066853;28;20592;-62
2021/04/19 13:07:21;;;;;;;11.37;10.23;;;;;;;;;;5080636;28;20213;-61
2021/04/19 13:09:48;;;;;;;9.53;8.63;;;;;;;;;;5103656;28;20585;-61
2021/04/19 13:12:14;;;;;;;10.57;9.57;;;;;;;;;;5091676;28;20187;-61
2021/04/19 13:14:41;;;;;;;12.00;10.73;;;;;;;;;;5091582;28;20184;-60
2021/04/19 13:17:09;;;;;;;11.40;10.30;;;;;;;;;;5090650;28;20184;-60
2021/04/19 13:19:36;;;;;;;10.90;9.33;;;;;;;;;;5078218;28;20180;-62
2021/04/19 13:22:02;;;;;;;11.00;9.90;;;;;;;;;;5068818;28;20186;-60
2021/04/19 13:24:28;;;;;;;11.37;10.37;;;;;;;;;;5091067;28;20264;-61
2021/04/19 13:26:54;;;;;;;11.93;10.83;;;;;;;;;;5091247;28;20283;-61
2021/04/19 13:29:20;;;;;;;11.10;9.93;;;;;;;;;;5091415;28;20256;-60
2021/04/19 13:31:47;;;;;;;11.27;9.77;;;;;;;;;;5091553;28;20325;-60
2021/04/19 13:34:14;;;;;;;12.73;10.00;;;;;;;;;;5081431;28;21038;-60
2021/04/19 13:36:40;;;;;;;11.93;10.63;;;;;;;;;;5081428;28;20187;-61
2021/04/19 13:39:06;;;;;;;9.73;8.83;;;;;;;;;;5086089;28;20180;-61
2021/04/19 13:41:32;;;;;;;10.40;9.33;;;;;;;;;;5081971;28;20180;-61
2021/04/19 13:43:58;;;;;;;10.13;9.13;;;;;;;;;;5071131;28;20203;-60
2021/04/19 13:46:25;;;;;;;9.67;8.67;;;;;;;;;;5084463;28;20180;-62
2021/04/19 13:48:51;;;;;;;9.37;8.47;;;;;;;;;;5089334;28;20179;-60
2021/04/19 13:51:18;;;;;;;9.77;8.87;;;;;;;;;;5078343;28;20189;-60
2021/04/19 13:53:44;;;;;;;10.80;9.80;;;;;;;;;;5090825;28;20231;-62
2021/04/19 13:56:10;;;;;;;10.47;9.37;;;;;;;;;;5086525;28;20258;-61
2021/04/19 13:58:36;;;;;;;10.20;9.20;;;;;;;;;;5081073;28;20342;-60
2021/04/19 14:01:03;;;;;;;15.23;13.63;;;;;;;;;;5065341;28;20184;-59
2021/04/19 14:03:30;;;;;;;17.67;15.93;;;;;;;;;;5083982;28;20203;-59
2021/04/19 14:05:56;;;;;;;16.13;14.43;;;;;;;;;;5070609;28;20187;-62
2021/04/19 14:08:22;;;;;;;18.97;17.03;;;;;;;;;;5086687;28;20722;-59
2021/04/19 14:10:48;;;;;;;18.33;16.47;;;;;;;;;;5087474;28;20258;-59
2021/04/19 14:13:14;;;;;;;18.00;16.13;;;;;;;;;;5057463;28;20181;-58
2021/04/19 14:15:41;;;;;;;19.43;17.37;;;;;;;;;;5071842;28;20176;-59
2021/04/19 14:18:08;;;;;;;18.43;16.53;;;;;;;;;;5067504;28;20206;-57
2021/04/19 14:20:34;;;;;;;17.87;16.07;;;;;;;;;;5083834;28;20268;-58
2021/04/19 14:23:00;;;;;;;17.37;15.63;;;;;;;;;;5088143;28;20650;-59
2021/04/19 14:25:26;;;;;;;18.27;16.30;;;;;;;;;;5089656;28;20168;-59
2021/04/19 14:27:52;;;;;;;16.17;14.67;;;;;;;;;;5078297;28;20175;-58
2021/04/19 14:30:19;;;;;;;17.50;15.67;;;;;;;;;;5085645;28;20237;-59
2021/04/19 14:32:45;;;;;;;16.70;14.90;;;;;;;;;;5062462;28;20224;-60
2021/04/19 14:35:12;;;;;;;16.57;14.77;;;;;;;;;;5082912;28;20194;-59
2021/04/19 14:37:38;;;;;;;16.20;14.23;;;;;;;;;;5081252;28;20561;-58
2021/04/19 14:40:04;;;;;;;18.60;16.73;;;;;;;;;;5064364;28;21131;-60
2021/04/19 14:42:30;;;;;;;16.13;14.47;;;;;;;;;;5080957;28;20258;-60